sensor_id;sensor_type;location;lat;lon;timestamp;pressure;altitude;pressure_sealevel;temperature;humidity
48204;BME280;33994;50.998;5.864;2023-01-31T00:00:12;102063.44;;;3.34;84.48
48204;BME280;33994;50.998;5.864;2023-01-31T00:03:15;102059.06;;;3.32;84.61
48204;BME280;33994;50.998;5.864;2023-01-31T00:06:22;102048.63;;;3.30;84.72
48204;BME280;33994;50.998;5.864;2023-01-31T00:09:26;102047.75;;;3.30;84.66
48204;BME280;33994;50.998;5.864;2023-01-31T00:12:29;102067.53;;;3.28;84.79
48204;BME280;33994;50.998;5.864;2023-01-31T00:15:32;102058.84;;;3.26;84.83
48204;BME280;33994;50.998;5.864;2023-01-31T00:18:35;102059.78;;;3.28;84.89
48204;BME280;33994;50.998;5.864;2023-01-31T00:21:40;102063.16;;;3.27;85.05
48204;BME280;33994;50.998;5.864;2023-01-31T00:24:43;102061.53;;;3.29;85.12
48204;BME280;33994;50.998;5.864;2023-01-31T00:27:46;102058.09;;;3.30;85.06
48204;BME280;33994;50.998;5.864;2023-01-31T00:30:49;102060.69;;;3.30;85.08
48204;BME280;33994;50.998;5.864;2023-01-31T00:33:54;102057.28;;;3.31;85.11
48204;BME280;33994;50.998;5.864;2023-01-31T00:36:58;102059.97;;;3.34;85.14
48204;BME280;33994;50.998;5.864;2023-01-31T00:40:02;102061.72;;;3.35;85.16
48204;BME280;33994;50.998;5.864;2023-01-31T00:43:05;102062.63;;;3.35;85.11
48204;BME280;33994;50.998;5.864;2023-01-31T00:46:08;102059.22;;;3.36;85.51
48204;BME280;33994;50.998;5.864;2023-01-31T00:49:11;102063.63;;;3.39;85.51
48204;BME280;33994;50.998;5.864;2023-01-31T00:52:15;102060.31;;;3.43;85.85
48204;BME280;33994;50.998;5.864;2023-01-31T00:55:18;102056.88;;;3.44;85.79
48204;BME280;33994;50.998;5.864;2023-01-31T00:58:21;102061.19;;;3.44;86.07
48204;BME280;33994;50.998;5.864;2023-01-31T01:01:26;102062.06;;;3.44;86.12
48204;BME280;33994;50.998;5.864;2023-01-31T01:04:29;102055.84;;;3.39;86.05
48204;BME280;33994;50.998;5.864;2023-01-31T01:07:34;102059.97;;;3.34;86.31
48204;BME280;33994;50.998;5.864;2023-01-31T01:10:38;102056.34;;;3.29;86.33
48204;BME280;33994;50.998;5.864;2023-01-31T01:13:41;102056.25;;;3.26;86.28
48204;BME280;33994;50.998;5.864;2023-01-31T01:16:44;102050.84;;;3.20;86.46
48204;BME280;33994;50.998;5.864;2023-01-31T01:19:48;102048.00;;;3.12;86.68
48204;BME280;33994;50.998;5.864;2023-01-31T01:22:52;102046.09;;;3.06;86.76
48204;BME280;33994;50.998;5.864;2023-01-31T01:25:55;102048.44;;;3.00;87.29
48204;BME280;33994;50.998;5.864;2023-01-31T01:28:59;102055.16;;;2.95;87.59
48204;BME280;33994;50.998;5.864;2023-01-31T01:32:03;102056.03;;;2.96;88.03
48204;BME280;33994;50.998;5.864;2023-01-31T01:35:07;102049.28;;;2.99;88.49
48204;BME280;33994;50.998;5.864;2023-01-31T01:38:11;102053.75;;;3.03;88.79
48204;BME280;33994;50.998;5.864;2023-01-31T01:41:14;102051.25;;;3.06;88.99
48204;BME280;33994;50.998;5.864;2023-01-31T01:44:41;102043.50;;;3.06;89.59
48204;BME280;33994;50.998;5.864;2023-01-31T01:47:48;102053.84;;;3.06;89.61
48204;BME280;33994;50.998;5.864;2023-01-31T01:50:52;102041.81;;;3.07;89.76
48204;BME280;33994;50.998;5.864;2023-01-31T01:53:59;102033.91;;;3.02;89.99
48204;BME280;33994;50.998;5.864;2023-01-31T01:57:05;102032.88;;;2.97;89.85
48204;BME280;33994;50.998;5.864;2023-01-31T02:00:13;102035.19;;;2.89;89.67
48204;BME280;33994;50.998;5.864;2023-01-31T02:03:16;102039.00;;;2.77;89.82
48204;BME280;33994;50.998;5.864;2023-01-31T02:06:20;102030.22;;;2.72;89.99
48204;BME280;33994;50.998;5.864;2023-01-31T02:09:31;102036.94;;;2.66;90.25
48204;BME280;33994;50.998;5.864;2023-01-31T02:12:35;102018.56;;;2.59;90.44
48204;BME280;33994;50.998;5.864;2023-01-31T02:15:38;102016.75;;;2.56;90.92
48204;BME280;33994;50.998;5.864;2023-01-31T02:18:42;102012.22;;;2.51;91.07
48204;BME280;33994;50.998;5.864;2023-01-31T02:22:12;102018.97;;;2.47;91.73
48204;BME280;33994;50.998;5.864;2023-01-31T02:29:22;102017.34;;;2.49;92.35
48204;BME280;33994;50.998;5.864;2023-01-31T02:32:52;102016.38;;;2.47;92.35
48204;BME280;33994;50.998;5.864;2023-01-31T02:36:07;102030.19;;;2.48;92.63
48204;BME280;33994;50.998;5.864;2023-01-31T02:39:23;102026.78;;;2.49;92.94
48204;BME280;33994;50.998;5.864;2023-01-31T02:42:34;102032.81;;;2.49;92.87
48204;BME280;33994;50.998;5.864;2023-01-31T02:45:45;102042.28;;;2.49;93.13
48204;BME280;33994;50.998;5.864;2023-01-31T02:48:57;102036.34;;;2.51;93.28
48204;BME280;33994;50.998;5.864;2023-01-31T02:52:15;102026.91;;;2.52;93.46
48204;BME280;33994;50.998;5.864;2023-01-31T02:55:24;102026.25;;;2.57;93.70
48204;BME280;33994;50.998;5.864;2023-01-31T02:58:32;102043.59;;;2.61;93.84
48204;BME280;33994;50.998;5.864;2023-01-31T03:01:39;102038.44;;;2.61;94.11
48204;BME280;33994;50.998;5.864;2023-01-31T03:04:45;102027.47;;;2.67;94.54
48204;BME280;33994;50.998;5.864;2023-01-31T03:07:52;102025.97;;;2.74;94.68
48204;BME280;33994;50.998;5.864;2023-01-31T03:10:59;102024.38;;;2.77;94.83
48204;BME280;33994;50.998;5.864;2023-01-31T03:14:08;102017.63;;;2.81;94.91
48204;BME280;33994;50.998;5.864;2023-01-31T03:17:22;102014.28;;;2.83;95.07
48204;BME280;33994;50.998;5.864;2023-01-31T03:20:33;102005.78;;;2.87;94.74
48204;BME280;33994;50.998;5.864;2023-01-31T03:23:40;102003.25;;;2.89;94.61
48204;BME280;33994;50.998;5.864;2023-01-31T03:26:45;101992.13;;;2.90;94.62
48204;BME280;33994;50.998;5.864;2023-01-31T03:29:50;101983.56;;;2.92;94.49
48204;BME280;33994;50.998;5.864;2023-01-31T03:32:58;101991.41;;;2.94;94.49
48204;BME280;33994;50.998;5.864;2023-01-31T03:36:11;101994.09;;;2.97;94.32
48204;BME280;33994;50.998;5.864;2023-01-31T03:39:28;101988.03;;;2.97;94.12
48204;BME280;33994;50.998;5.864;2023-01-31T03:42:41;101989.84;;;2.99;94.07
48204;BME280;33994;50.998;5.864;2023-01-31T03:45:48;101993.38;;;3.01;93.77
48204;BME280;33994;50.998;5.864;2023-01-31T03:48:55;101989.91;;;3.01;93.71
48204;BME280;33994;50.998;5.864;2023-01-31T03:52:04;101985.66;;;3.03;93.39
48204;BME280;33994;50.998;5.864;2023-01-31T03:55:13;101990.88;;;3.04;93.60
48204;BME280;33994;50.998;5.864;2023-01-31T03:58:18;101984.91;;;3.05;93.28
48204;BME280;33994;50.998;5.864;2023-01-31T04:01:25;101985.69;;;3.04;93.27
48204;BME280;33994;50.998;5.864;2023-01-31T04:04:31;101985.66;;;3.03;93.10
48204;BME280;33994;50.998;5.864;2023-01-31T04:07:39;101983.06;;;3.03;93.00
48204;BME280;33994;50.998;5.864;2023-01-31T04:10:42;101986.53;;;3.03;92.94
48204;BME280;33994;50.998;5.864;2023-01-31T04:13:46;101989.13;;;3.03;92.79
48204;BME280;33994;50.998;5.864;2023-01-31T04:16:49;101989.94;;;3.02;92.74
48204;BME280;33994;50.998;5.864;2023-01-31T04:19:52;101998.47;;;3.00;92.78
48204;BME280;33994;50.998;5.864;2023-01-31T04:22:57;101996.75;;;3.00;92.76
48204;BME280;33994;50.998;5.864;2023-01-31T04:26:00;101983.84;;;3.00;92.58
48204;BME280;33994;50.998;5.864;2023-01-31T04:29:03;101979.50;;;2.99;92.60
48204;BME280;33994;50.998;5.864;2023-01-31T04:32:06;101977.78;;;3.00;92.71
48204;BME280;33994;50.998;5.864;2023-01-31T04:35:09;101976.88;;;2.98;92.60
48204;BME280;33994;50.998;5.864;2023-01-31T04:38:13;101967.41;;;2.98;92.56
48204;BME280;33994;50.998;5.864;2023-01-31T04:41:16;101972.59;;;2.98;92.50
48204;BME280;33994;50.998;5.864;2023-01-31T04:44:19;101969.94;;;2.97;92.31
48204;BME280;33994;50.998;5.864;2023-01-31T04:47:23;101974.22;;;2.96;92.29
48204;BME280;33994;50.998;5.864;2023-01-31T04:50:26;101981.06;;;2.94;92.20
48204;BME280;33994;50.998;5.864;2023-01-31T04:53:30;101978.47;;;2.94;92.16
48204;BME280;33994;50.998;5.864;2023-01-31T04:56:34;101976.75;;;2.95;92.05
48204;BME280;33994;50.998;5.864;2023-01-31T04:59:37;101964.69;;;2.94;91.97
48204;BME280;33994;50.998;5.864;2023-01-31T05:02:40;101962.81;;;2.89;91.95
48204;BME280;33994;50.998;5.864;2023-01-31T05:05:46;101956.69;;;2.87;91.90
48204;BME280;33994;50.998;5.864;2023-01-31T05:08:51;101946.22;;;2.83;91.91
48204;BME280;33994;50.998;5.864;2023-01-31T05:11:54;101967.81;;;2.85;91.99
48204;BME280;33994;50.998;5.864;2023-01-31T05:14:57;101953.97;;;2.83;91.94
48204;BME280;33994;50.998;5.864;2023-01-31T05:18:01;101954.00;;;2.84;91.87
48204;BME280;33994;50.998;5.864;2023-01-31T05:21:06;101947.06;;;2.82;91.95
48204;BME280;33994;50.998;5.864;2023-01-31T05:24:10;101940.09;;;2.81;92.03
48204;BME280;33994;50.998;5.864;2023-01-31T05:27:14;101935.81;;;2.81;92.01
48204;BME280;33994;50.998;5.864;2023-01-31T05:30:18;101925.53;;;2.83;91.97
48204;BME280;33994;50.998;5.864;2023-01-31T05:33:21;101925.69;;;2.87;91.81
48204;BME280;33994;50.998;5.864;2023-01-31T05:36:25;101908.47;;;2.88;91.67
48204;BME280;33994;50.998;5.864;2023-01-31T05:39:29;101918.81;;;2.88;91.71
48204;BME280;33994;50.998;5.864;2023-01-31T05:42:33;101920.56;;;2.89;91.59
48204;BME280;33994;50.998;5.864;2023-01-31T05:45:36;101911.91;;;2.87;91.63
48204;BME280;33994;50.998;5.864;2023-01-31T05:48:39;101895.53;;;2.86;91.67
48204;BME280;33994;50.998;5.864;2023-01-31T05:51:42;101903.19;;;2.85;91.52
48204;BME280;33994;50.998;5.864;2023-01-31T05:54:47;101894.53;;;2.83;91.42
48204;BME280;33994;50.998;5.864;2023-01-31T05:57:50;101885.03;;;2.82;91.36
48204;BME280;33994;50.998;5.864;2023-01-31T06:00:54;101880.69;;;2.81;91.26
48204;BME280;33994;50.998;5.864;2023-01-31T06:03:58;101898.75;;;2.81;91.19
48204;BME280;33994;50.998;5.864;2023-01-31T06:07:01;101899.63;;;2.81;91.27
48204;BME280;33994;50.998;5.864;2023-01-31T06:10:07;101911.69;;;2.81;91.08
48204;BME280;33994;50.998;5.864;2023-01-31T06:13:11;101908.22;;;2.80;90.86
48204;BME280;33994;50.998;5.864;2023-01-31T06:16:14;101905.75;;;2.83;90.76
48204;BME280;33994;50.998;5.864;2023-01-31T06:19:18;101908.38;;;2.85;90.67
48204;BME280;33994;50.998;5.864;2023-01-31T06:22:21;101910.16;;;2.86;90.38
48204;BME280;33994;50.998;5.864;2023-01-31T06:25:26;101906.72;;;2.87;90.31
48204;BME280;33994;50.998;5.864;2023-01-31T06:28:29;101903.31;;;2.88;90.25
48204;BME280;33994;50.998;5.864;2023-01-31T06:31:32;101911.06;;;2.88;90.23
48204;BME280;33994;50.998;5.864;2023-01-31T06:34:35;101920.50;;;2.86;89.93
48204;BME280;33994;50.998;5.864;2023-01-31T06:37:38;101919.66;;;2.87;89.89
48204;BME280;33994;50.998;5.864;2023-01-31T06:40:42;101918.81;;;2.88;89.72
48204;BME280;33994;50.998;5.864;2023-01-31T06:43:46;101915.41;;;2.89;89.41
48204;BME280;33994;50.998;5.864;2023-01-31T06:46:50;101926.69;;;2.91;89.50
48204;BME280;33994;50.998;5.864;2023-01-31T06:49:53;101934.44;;;2.91;89.33
48204;BME280;33994;50.998;5.864;2023-01-31T06:52:56;101929.38;;;2.94;89.14
48204;BME280;33994;50.998;5.864;2023-01-31T06:56:01;101927.69;;;2.96;89.16
48204;BME280;33994;50.998;5.864;2023-01-31T06:59:04;101938.16;;;2.99;88.97
48204;BME280;33994;50.998;5.864;2023-01-31T07:02:08;101940.81;;;3.01;88.83
48204;BME280;33994;50.998;5.864;2023-01-31T07:05:11;101937.50;;;3.05;88.55
48204;BME280;33994;50.998;5.864;2023-01-31T07:08:14;101929.81;;;3.08;88.45
48204;BME280;33994;50.998;5.864;2023-01-31T07:11:19;101946.31;;;3.11;88.34
48204;BME280;33994;50.998;5.864;2023-01-31T07:14:22;101934.50;;;3.20;88.20
48204;BME280;33994;50.998;5.864;2023-01-31T07:17:25;101935.66;;;3.28;88.10
48204;BME280;33994;50.998;5.864;2023-01-31T07:20:28;101923.75;;;3.33;87.51
48204;BME280;33994;50.998;5.864;2023-01-31T07:23:31;101923.84;;;3.36;87.11
48204;BME280;33994;50.998;5.864;2023-01-31T07:26:35;101922.28;;;3.41;86.87
48204;BME280;33994;50.998;5.864;2023-01-31T07:29:38;101915.53;;;3.46;86.66
48204;BME280;33994;50.998;5.864;2023-01-31T07:32:41;101906.16;;;3.50;86.45
48204;BME280;33994;50.998;5.864;2023-01-31T07:35:44;101920.91;;;3.52;86.38
48204;BME280;33994;50.998;5.864;2023-01-31T07:38:47;101905.50;;;3.55;86.13
48204;BME280;33994;50.998;5.864;2023-01-31T07:41:52;101905.59;;;3.58;85.92
48204;BME280;33994;50.998;5.864;2023-01-31T07:44:56;101908.22;;;3.60;85.97
48204;BME280;33994;50.998;5.864;2023-01-31T07:47:59;101909.09;;;3.60;86.13
48204;BME280;33994;50.998;5.864;2023-01-31T07:51:02;101916.13;;;3.64;86.05
48204;BME280;33994;50.998;5.864;2023-01-31T07:54:05;101903.28;;;3.68;86.10
48204;BME280;33994;50.998;5.864;2023-01-31T07:57:10;101896.50;;;3.71;86.17
48204;BME280;33994;50.998;5.864;2023-01-31T08:00:13;101893.13;;;3.74;86.58
48204;BME280;33994;50.998;5.864;2023-01-31T08:03:22;101901.75;;;3.74;86.51
48204;BME280;33994;50.998;5.864;2023-01-31T08:06:28;101893.16;;;3.75;86.40
48204;BME280;33994;50.998;5.864;2023-01-31T08:09:32;101898.44;;;3.78;86.51
48204;BME280;33994;50.998;5.864;2023-01-31T08:12:37;101897.72;;;3.84;86.61
48204;BME280;33994;50.998;5.864;2023-01-31T08:15:39;101878.00;;;3.87;86.64
48204;BME280;33994;50.998;5.864;2023-01-31T08:18:43;101886.72;;;3.91;86.60
48204;BME280;33994;50.998;5.864;2023-01-31T08:21:45;101892.84;;;3.93;86.82
48204;BME280;33994;50.998;5.864;2023-01-31T08:24:49;101892.94;;;3.96;86.99
48204;BME280;33994;50.998;5.864;2023-01-31T08:27:55;101891.16;;;3.95;86.99
48204;BME280;33994;50.998;5.864;2023-01-31T08:30:58;101903.13;;;3.92;87.13
48204;BME280;33994;50.998;5.864;2023-01-31T08:34:01;101878.09;;;3.91;87.29
48204;BME280;33994;50.998;5.864;2023-01-31T08:37:04;101881.53;;;3.89;87.58
48204;BME280;33994;50.998;5.864;2023-01-31T08:40:09;101877.19;;;3.88;88.02
48204;BME280;33994;50.998;5.864;2023-01-31T08:43:13;101868.50;;;3.88;88.23
48204;BME280;33994;50.998;5.864;2023-01-31T08:46:17;101859.94;;;3.89;88.34
48204;BME280;33994;50.998;5.864;2023-01-31T08:49:20;101862.56;;;3.91;88.63
48204;BME280;33994;50.998;5.864;2023-01-31T08:52:23;101862.56;;;3.91;89.12
48204;BME280;33994;50.998;5.864;2023-01-31T08:55:27;101860.00;;;3.92;89.69
48204;BME280;33994;50.998;5.864;2023-01-31T08:58:32;101856.59;;;3.93;90.48
48204;BME280;33994;50.998;5.864;2023-01-31T09:01:35;101856.69;;;3.96;90.56
48204;BME280;33994;50.998;5.864;2023-01-31T09:04:38;101839.47;;;3.98;90.73
48204;BME280;33994;50.998;5.864;2023-01-31T09:07:41;101813.69;;;4.01;91.02
48204;BME280;33994;50.998;5.864;2023-01-31T09:10:50;101817.19;;;4.03;91.32
48204;BME280;33994;50.998;5.864;2023-01-31T09:13:54;101831.16;;;4.08;91.17
48204;BME280;33994;50.998;5.864;2023-01-31T09:16:57;101834.63;;;4.10;91.59
48204;BME280;33994;50.998;5.864;2023-01-31T09:20:01;101846.84;;;4.14;91.93
48204;BME280;33994;50.998;5.864;2023-01-31T09:23:04;101827.91;;;4.16;91.80
48204;BME280;33994;50.998;5.864;2023-01-31T09:26:08;101822.78;;;4.19;91.93
48204;BME280;33994;50.998;5.864;2023-01-31T09:29:12;101816.03;;;4.24;92.25
48204;BME280;33994;50.998;5.864;2023-01-31T09:32:15;101815.28;;;4.28;92.12
48204;BME280;33994;50.998;5.864;2023-01-31T09:35:18;101821.31;;;4.28;92.30
48204;BME280;33994;50.998;5.864;2023-01-31T09:38:22;101817.94;;;4.31;92.49
48204;BME280;33994;50.998;5.864;2023-01-31T09:41:29;101811.16;;;4.36;92.52
48204;BME280;33994;50.998;5.864;2023-01-31T09:44:38;101806.00;;;4.37;91.93
48204;BME280;33994;50.998;5.864;2023-01-31T09:47:45;101805.34;;;4.45;92.12
48204;BME280;33994;50.998;5.864;2023-01-31T09:50:50;101791.72;;;4.52;92.15
48204;BME280;33994;50.998;5.864;2023-01-31T09:53:54;101797.00;;;4.56;92.12
48204;BME280;33994;50.998;5.864;2023-01-31T09:57:02;101796.22;;;4.59;91.76
48204;BME280;33994;50.998;5.864;2023-01-31T10:00:17;101793.59;;;4.57;91.86
48204;BME280;33994;50.998;5.864;2023-01-31T10:03:34;101804.78;;;4.56;91.85
48204;BME280;33994;50.998;5.864;2023-01-31T10:06:44;101801.31;;;4.56;92.29
48204;BME280;33994;50.998;5.864;2023-01-31T10:09:52;101787.56;;;4.58;92.53
48204;BME280;33994;50.998;5.864;2023-01-31T10:13:00;101780.63;;;4.57;92.89
48204;BME280;33994;50.998;5.864;2023-01-31T10:16:16;101783.34;;;4.62;93.04
48204;BME280;33994;50.998;5.864;2023-01-31T10:19:27;101767.03;;;4.68;93.65
48204;BME280;33994;50.998;5.864;2023-01-31T10:22:36;101760.28;;;4.73;94.42
48204;BME280;33994;50.998;5.864;2023-01-31T10:25:45;101767.28;;;4.77;95.16
48204;BME280;33994;50.998;5.864;2023-01-31T10:28:54;101763.94;;;4.81;95.52
48204;BME280;33994;50.998;5.864;2023-01-31T10:32:03;101760.47;;;4.82;96.04
48204;BME280;33994;50.998;5.864;2023-01-31T10:35:14;101740.69;;;4.84;96.31
48204;BME280;33994;50.998;5.864;2023-01-31T10:38:21;101729.47;;;4.85;96.23
48204;BME280;33994;50.998;5.864;2023-01-31T10:41:37;101739.91;;;4.88;96.36
48204;BME280;33994;50.998;5.864;2023-01-31T10:44:46;101748.72;;;4.95;96.38
48204;BME280;33994;50.998;5.864;2023-01-31T10:47:56;101735.78;;;4.96;96.91
48204;BME280;33994;50.998;5.864;2023-01-31T10:51:07;101733.28;;;4.99;96.90
48204;BME280;33994;50.998;5.864;2023-01-31T10:54:26;101724.66;;;5.00;96.86
48204;BME280;33994;50.998;5.864;2023-01-31T10:57:33;101715.16;;;5.02;96.79
48204;BME280;33994;50.998;5.864;2023-01-31T11:00:36;101703.06;;;5.01;96.76
48204;BME280;33994;50.998;5.864;2023-01-31T11:03:46;101692.78;;;5.06;96.72
48204;BME280;33994;50.998;5.864;2023-01-31T11:06:50;101706.59;;;5.05;96.69
48204;BME280;33994;50.998;5.864;2023-01-31T11:09:53;101713.56;;;5.07;96.81
48204;BME280;33994;50.998;5.864;2023-01-31T11:12:57;101707.63;;;5.12;96.82
48204;BME280;33994;50.998;5.864;2023-01-31T11:16:02;101716.34;;;5.17;96.60
48204;BME280;33994;50.998;5.864;2023-01-31T11:19:17;101714.63;;;5.17;96.34
48204;BME280;33994;50.998;5.864;2023-01-31T11:22:24;101727.53;;;5.14;96.05
48204;BME280;33994;50.998;5.864;2023-01-31T11:25:30;101709.38;;;5.14;96.26
48204;BME280;33994;50.998;5.864;2023-01-31T11:28:35;101703.31;;;5.12;95.99
48204;BME280;33994;50.998;5.864;2023-01-31T11:31:40;101705.91;;;5.14;95.96
48204;BME280;33994;50.998;5.864;2023-01-31T11:34:56;101698.19;;;5.17;95.88
48204;BME280;33994;50.998;5.864;2023-01-31T11:38:01;101714.69;;;5.19;96.06
48204;BME280;33994;50.998;5.864;2023-01-31T11:41:25;101700.00;;;5.19;95.94
48204;BME280;33994;50.998;5.864;2023-01-31T11:44:29;101696.56;;;5.20;95.91
48204;BME280;33994;50.998;5.864;2023-01-31T11:47:38;101681.94;;;5.24;96.02
48204;BME280;33994;50.998;5.864;2023-01-31T11:50:50;101669.03;;;5.27;95.91
48204;BME280;33994;50.998;5.864;2023-01-31T11:53:55;101679.44;;;5.28;96.03
48204;BME280;33994;50.998;5.864;2023-01-31T11:56:59;101669.91;;;5.29;95.82
48204;BME280;33994;50.998;5.864;2023-01-31T12:00:05;101665.59;;;5.29;95.81
48204;BME280;33994;50.998;5.864;2023-01-31T12:03:14;101657.06;;;5.33;95.80
48204;BME280;33994;50.998;5.864;2023-01-31T12:06:28;101651.97;;;5.40;95.91
48204;BME280;33994;50.998;5.864;2023-01-31T12:09:41;101652.91;;;5.43;96.01
48204;BME280;33994;50.998;5.864;2023-01-31T12:12:44;101643.50;;;5.48;95.78
48204;BME280;33994;50.998;5.864;2023-01-31T12:15:54;101636.69;;;5.53;95.60
48204;BME280;33994;50.998;5.864;2023-01-31T12:19:07;101652.34;;;5.58;95.51
48204;BME280;33994;50.998;5.864;2023-01-31T12:22:20;101662.72;;;5.58;95.69
48204;BME280;33994;50.998;5.864;2023-01-31T12:25:33;101662.72;;;5.58;95.22
48204;BME280;33994;50.998;5.864;2023-01-31T12:28:55;101652.34;;;5.58;95.41
48204;BME280;33994;50.998;5.864;2023-01-31T12:32:13;101656.72;;;5.61;95.38
48204;BME280;33994;50.998;5.864;2023-01-31T12:35:33;101655.88;;;5.63;95.50
48204;BME280;33994;50.998;5.864;2023-01-31T12:38:53;101655.06;;;5.66;95.09
48204;BME280;33994;50.998;5.864;2023-01-31T12:42:14;101653.34;;;5.68;95.03
48204;BME280;33994;50.998;5.864;2023-01-31T12:45:49;101658.59;;;5.69;94.93
48204;BME280;33994;50.998;5.864;2023-01-31T12:49:04;101648.22;;;5.71;94.82
48204;BME280;33994;50.998;5.864;2023-01-31T12:52:18;101643.09;;;5.74;94.93
48204;BME280;33994;50.998;5.864;2023-01-31T12:55:31;101649.22;;;5.76;94.46
48204;BME280;33994;50.998;5.864;2023-01-31T12:58:44;101634.53;;;5.78;94.62
48204;BME280;33994;50.998;5.864;2023-01-31T13:01:55;101644.91;;;5.78;94.29
48204;BME280;33994;50.998;5.864;2023-01-31T13:05:03;101643.16;;;5.77;94.01
48204;BME280;33994;50.998;5.864;2023-01-31T13:08:15;101659.59;;;5.76;93.79
48204;BME280;33994;50.998;5.864;2023-01-31T13:11:23;101648.34;;;5.77;94.13
48204;BME280;33994;50.998;5.864;2023-01-31T13:14:31;101640.59;;;5.78;94.16
48204;BME280;33994;50.998;5.864;2023-01-31T13:17:38;101641.41;;;5.76;94.09
48204;BME280;33994;50.998;5.864;2023-01-31T13:20:45;101642.31;;;5.78;94.23
48204;BME280;33994;50.998;5.864;2023-01-31T13:23:53;101641.44;;;5.77;94.48
48204;BME280;33994;50.998;5.864;2023-01-31T13:27:02;101637.97;;;5.77;94.97
48204;BME280;33994;50.998;5.864;2023-01-31T13:33:23;101652.75;;;5.81;96.32
48204;BME280;33994;50.998;5.864;2023-01-31T13:36:31;101648.38;;;5.78;96.91
48204;BME280;33994;50.998;5.864;2023-01-31T13:39:38;101644.03;;;5.76;97.97
48204;BME280;33994;50.998;5.864;2023-01-31T13:42:44;101650.94;;;5.77;98.86
48204;BME280;33994;50.998;5.864;2023-01-31T13:45:49;101641.41;;;5.76;99.78
48204;BME280;33994;50.998;5.864;2023-01-31T13:48:58;101640.56;;;5.77;100.00
48204;BME280;33994;50.998;5.864;2023-01-31T13:52:09;101647.41;;;5.73;100.00
48204;BME280;33994;50.998;5.864;2023-01-31T13:55:17;101639.63;;;5.73;100.00
48204;BME280;33994;50.998;5.864;2023-01-31T13:58:26;101640.44;;;5.71;100.00
48204;BME280;33994;50.998;5.864;2023-01-31T14:01:31;101636.09;;;5.70;100.00
48204;BME280;33994;50.998;5.864;2023-01-31T14:04:36;101647.34;;;5.69;100.00
48204;BME280;33994;50.998;5.864;2023-01-31T14:07:39;101643.84;;;5.67;100.00
48204;BME280;33994;50.998;5.864;2023-01-31T14:10:42;101642.94;;;5.65;100.00
48204;BME280;33994;50.998;5.864;2023-01-31T14:13:48;101635.97;;;5.64;100.00
48204;BME280;33994;50.998;5.864;2023-01-31T14:16:52;101642.09;;;5.64;100.00
48204;BME280;33994;50.998;5.864;2023-01-31T14:20:04;101644.63;;;5.63;100.00
48204;BME280;33994;50.998;5.864;2023-01-31T14:23:28;101638.59;;;5.64;100.00
48204;BME280;33994;50.998;5.864;2023-01-31T14:26:33;101643.75;;;5.62;100.00
48204;BME280;33994;50.998;5.864;2023-01-31T14:29:41;101644.63;;;5.63;100.00
48204;BME280;33994;50.998;5.864;2023-01-31T14:32:47;101630.78;;;5.64;100.00
48204;BME280;33994;50.998;5.864;2023-01-31T14:36:12;101626.47;;;5.63;100.00
48204;BME280;33994;50.998;5.864;2023-01-31T14:39:32;101635.13;;;5.63;100.00
48204;BME280;33994;50.998;5.864;2023-01-31T14:43:11;101635.09;;;5.62;100.00
48204;BME280;33994;50.998;5.864;2023-01-31T14:46:55;101630.78;;;5.61;100.00
48204;BME280;33994;50.998;5.864;2023-01-31T14:50:22;101637.63;;;5.58;100.00
48204;BME280;33994;50.998;5.864;2023-01-31T14:53:51;101651.53;;;5.61;100.00
48204;BME280;33994;50.998;5.864;2023-01-31T14:57:13;101649.81;;;5.61;100.00
48204;BME280;33994;50.998;5.864;2023-01-31T15:00:19;101647.22;;;5.61;100.00
48204;BME280;33994;50.998;5.864;2023-01-31T15:03:26;101657.53;;;5.59;100.00
48204;BME280;33994;50.998;5.864;2023-01-31T15:06:33;101672.28;;;5.61;100.00
48204;BME280;33994;50.998;5.864;2023-01-31T15:09:38;101678.34;;;5.61;100.00
48204;BME280;33994;50.998;5.864;2023-01-31T15:12:52;101681.75;;;5.58;100.00
48204;BME280;33994;50.998;5.864;2023-01-31T15:15:56;101675.72;;;5.59;100.00
48204;BME280;33994;50.998;5.864;2023-01-31T15:19:06;101687.00;;;5.62;100.00
48204;BME280;33994;50.998;5.864;2023-01-31T15:22:10;101697.44;;;5.65;100.00
48204;BME280;33994;50.998;5.864;2023-01-31T15:25:27;101697.38;;;5.62;100.00
48204;BME280;33994;50.998;5.864;2023-01-31T15:28:35;101702.59;;;5.63;100.00
48204;BME280;33994;50.998;5.864;2023-01-31T15:31:41;101705.25;;;5.65;100.00
48204;BME280;33994;50.998;5.864;2023-01-31T15:34:53;101714.78;;;5.67;100.00
48204;BME280;33994;50.998;5.864;2023-01-31T15:37:58;101708.78;;;5.70;100.00
48204;BME280;33994;50.998;5.864;2023-01-31T15:41:25;101710.53;;;5.71;100.00
48204;BME280;33994;50.998;5.864;2023-01-31T15:44:28;101713.25;;;5.75;100.00
48204;BME280;33994;50.998;5.864;2023-01-31T15:47:31;101705.44;;;5.75;100.00
48204;BME280;33994;50.998;5.864;2023-01-31T15:50:36;101707.19;;;5.76;100.00
48204;BME280;33994;50.998;5.864;2023-01-31T15:53:40;101716.72;;;5.77;100.00
48204;BME280;33994;50.998;5.864;2023-01-31T15:56:44;101719.31;;;5.79;100.00
48204;BME280;33994;50.998;5.864;2023-01-31T15:59:47;101719.41;;;5.82;100.00
48204;BME280;33994;50.998;5.864;2023-01-31T16:02:51;101722.91;;;5.84;100.00
48204;BME280;33994;50.998;5.864;2023-01-31T16:05:57;101719.44;;;5.83;100.00
48204;BME280;33994;50.998;5.864;2023-01-31T16:09:03;101717.72;;;5.84;100.00
48204;BME280;33994;50.998;5.864;2023-01-31T16:12:08;101717.72;;;5.84;100.00
48204;BME280;33994;50.998;5.864;2023-01-31T16:15:17;101724.66;;;5.85;100.00
48204;BME280;33994;50.998;5.864;2023-01-31T16:18:23;101721.25;;;5.88;100.00
48204;BME280;33994;50.998;5.864;2023-01-31T16:21:30;101722.97;;;5.87;100.00
48204;BME280;33994;50.998;5.864;2023-01-31T16:24:33;101729.06;;;5.89;100.00
48204;BME280;33994;50.998;5.864;2023-01-31T16:27:37;101730.78;;;5.90;100.00
48204;BME280;33994;50.998;5.864;2023-01-31T16:30:44;101735.16;;;5.91;100.00
48204;BME280;33994;50.998;5.864;2023-01-31T16:33:49;101728.19;;;5.90;100.00